sensor_id;sensor_type;location;lat;lon;timestamp;P1;durP1;ratioP1;P2;durP2;ratioP2
37955;SDS011;23776;51.592;7.180;2023-02-28T00:01:04;10.07;;;4.72;;
37955;SDS011;23776;51.592;7.180;2023-02-28T00:03:29;9.25;;;4.93;;
37955;SDS011;23776;51.592;7.180;2023-02-28T00:05:55;9.90;;;4.72;;
37955;SDS011;23776;51.592;7.180;2023-02-28T00:08:20;9.60;;;4.85;;
37955;SDS011;23776;51.592;7.180;2023-02-28T00:10:46;12.85;;;5.72;;
37955;SDS011;23776;51.592;7.180;2023-02-28T00:13:12;10.50;;;4.63;;
37955;SDS011;23776;51.592;7.180;2023-02-28T00:15:38;8.88;;;5.05;;
37955;SDS011;23776;51.592;7.180;2023-02-28T00:18:03;10.38;;;5.53;;
37955;SDS011;23776;51.592;7.180;2023-02-28T00:20:29;17.00;;;5.18;;
37955;SDS011;23776;51.592;7.180;2023-02-28T00:22:55;10.63;;;5.03;;
37955;SDS011;23776;51.592;7.180;2023-02-28T00:25:22;13.18;;;5.32;;
37955;SDS011;23776;51.592;7.180;2023-02-28T00:27:49;8.40;;;4.25;;
37955;SDS011;23776;51.592;7.180;2023-02-28T00:30:17;13.48;;;5.68;;
37955;SDS011;23776;51.592;7.180;2023-02-28T00:32:44;11.38;;;5.00;;
37955;SDS011;23776;51.592;7.180;2023-02-28T00:35:10;14.75;;;4.72;;
37955;SDS011;23776;51.592;7.180;2023-02-28T00:37:37;11.65;;;4.55;;
37955;SDS011;23776;51.592;7.180;2023-02-28T00:40:03;11.35;;;4.63;;
37955;SDS011;23776;51.592;7.180;2023-02-28T00:42:30;10.13;;;4.28;;
37955;SDS011;23776;51.592;7.180;2023-02-28T00:44:56;7.70;;;3.83;;
37955;SDS011;23776;51.592;7.180;2023-02-28T00:47:22;9.48;;;4.22;;
37955;SDS011;23776;51.592;7.180;2023-02-28T00:49:47;9.93;;;4.68;;
37955;SDS011;23776;51.592;7.180;2023-02-28T00:52:13;8.88;;;3.80;;
37955;SDS011;23776;51.592;7.180;2023-02-28T00:54:39;9.55;;;3.72;;
37955;SDS011;23776;51.592;7.180;2023-02-28T00:57:04;11.48;;;4.07;;
37955;SDS011;23776;51.592;7.180;2023-02-28T00:59:30;11.48;;;3.95;;
37955;SDS011;23776;51.592;7.180;2023-02-28T01:01:55;9.35;;;4.05;;
37955;SDS011;23776;51.592;7.180;2023-02-28T01:04:21;9.38;;;3.97;;
37955;SDS011;23776;51.592;7.180;2023-02-28T01:06:46;7.50;;;3.70;;
37955;SDS011;23776;51.592;7.180;2023-02-28T01:09:12;7.60;;;3.40;;
37955;SDS011;23776;51.592;7.180;2023-02-28T01:11:38;8.25;;;3.85;;
37955;SDS011;23776;51.592;7.180;2023-02-28T01:14:06;5.70;;;3.10;;
37955;SDS011;23776;51.592;7.180;2023-02-28T01:16:33;9.30;;;3.55;;
37955;SDS011;23776;51.592;7.180;2023-02-28T01:18:58;7.10;;;3.70;;
37955;SDS011;23776;51.592;7.180;2023-02-28T01:21:24;5.78;;;3.63;;
37955;SDS011;23776;51.592;7.180;2023-02-28T01:23:50;6.05;;;3.55;;
37955;SDS011;23776;51.592;7.180;2023-02-28T01:26:17;8.35;;;3.38;;
37955;SDS011;23776;51.592;7.180;2023-02-28T01:28:47;9.32;;;3.30;;
37955;SDS011;23776;51.592;7.180;2023-02-28T01:31:14;7.90;;;3.80;;
37955;SDS011;23776;51.592;7.180;2023-02-28T01:33:40;9.23;;;3.45;;
37955;SDS011;23776;51.592;7.180;2023-02-28T01:36:08;11.10;;;4.03;;
37955;SDS011;23776;51.592;7.180;2023-02-28T01:38:38;6.95;;;3.58;;
37955;SDS011;23776;51.592;7.180;2023-02-28T01:41:04;7.45;;;3.63;;
37955;SDS011;23776;51.592;7.180;2023-02-28T01:43:32;6.53;;;3.50;;
37955;SDS011;23776;51.592;7.180;2023-02-28T01:46:07;9.60;;;3.78;;
37955;SDS011;23776;51.592;7.180;2023-02-28T01:48:32;8.57;;;3.95;;
37955;SDS011;23776;51.592;7.180;2023-02-28T01:51:04;9.35;;;3.97;;
37955;SDS011;23776;51.592;7.180;2023-02-28T01:53:37;10.07;;;3.65;;
37955;SDS011;23776;51.592;7.180;2023-02-28T01:56:09;10.32;;;3.88;;
37955;SDS011;23776;51.592;7.180;2023-02-28T01:58:46;8.35;;;3.65;;
37955;SDS011;23776;51.592;7.180;2023-02-28T02:01:12;9.50;;;3.67;;
37955;SDS011;23776;51.592;7.180;2023-02-28T02:06:13;14.00;;;3.70;;
37955;SDS011;23776;51.592;7.180;2023-02-28T02:08:38;11.32;;;3.75;;
37955;SDS011;23776;51.592;7.180;2023-02-28T02:11:04;7.15;;;3.72;;
37955;SDS011;23776;51.592;7.180;2023-02-28T02:25:28;9.55;;;4.03;;
37955;SDS011;23776;51.592;7.180;2023-02-28T02:28:34;12.82;;;4.15;;
37955;SDS011;23776;51.592;7.180;2023-02-28T02:34:23;8.73;;;3.88;;
37955;SDS011;23776;51.592;7.180;2023-02-28T02:37:15;5.35;;;3.53;;
37955;SDS011;23776;51.592;7.180;2023-02-28T02:39:47;8.60;;;3.80;;
37955;SDS011;23776;51.592;7.180;2023-02-28T02:42:21;10.00;;;4.10;;
37955;SDS011;23776;51.592;7.180;2023-02-28T02:44:57;9.38;;;3.90;;
37955;SDS011;23776;51.592;7.180;2023-02-28T02:49:55;6.57;;;3.67;;
37955;SDS011;23776;51.592;7.180;2023-02-28T02:52:25;10.07;;;3.95;;
37955;SDS011;23776;51.592;7.180;2023-02-28T02:54:57;6.55;;;3.80;;
37955;SDS011;23776;51.592;7.180;2023-02-28T02:57:27;12.38;;;3.53;;
37955;SDS011;23776;51.592;7.180;2023-02-28T03:00:04;7.18;;;3.58;;
37955;SDS011;23776;51.592;7.180;2023-02-28T03:02:35;11.93;;;3.92;;
37955;SDS011;23776;51.592;7.180;2023-02-28T03:05:04;5.43;;;3.30;;
37955;SDS011;23776;51.592;7.180;2023-02-28T03:07:34;6.47;;;3.85;;
37955;SDS011;23776;51.592;7.180;2023-02-28T03:09:59;7.95;;;3.55;;
37955;SDS011;23776;51.592;7.180;2023-02-28T03:12:49;6.50;;;3.42;;
37955;SDS011;23776;51.592;7.180;2023-02-28T03:15:19;4.32;;;3.30;;
37955;SDS011;23776;51.592;7.180;2023-02-28T03:17:57;8.93;;;3.55;;
37955;SDS011;23776;51.592;7.180;2023-02-28T03:28:57;7.38;;;3.47;;
37955;SDS011;23776;51.592;7.180;2023-02-28T03:31:41;6.57;;;3.58;;
37955;SDS011;23776;51.592;7.180;2023-02-28T03:37:03;5.70;;;3.08;;
37955;SDS011;23776;51.592;7.180;2023-02-28T03:39:39;5.30;;;3.00;;
37955;SDS011;23776;51.592;7.180;2023-02-28T03:44:38;7.65;;;2.75;;
37955;SDS011;23776;51.592;7.180;2023-02-28T03:47:12;5.03;;;2.85;;
37955;SDS011;23776;51.592;7.180;2023-02-28T03:49:50;4.40;;;2.97;;
37955;SDS011;23776;51.592;7.180;2023-02-28T03:52:20;8.75;;;3.47;;
37955;SDS011;23776;51.592;7.180;2023-02-28T03:54:54;5.53;;;3.33;;
37955;SDS011;23776;51.592;7.180;2023-02-28T03:59:56;5.18;;;2.85;;
37955;SDS011;23776;51.592;7.180;2023-02-28T04:02:30;5.82;;;3.08;;
37955;SDS011;23776;51.592;7.180;2023-02-28T04:04:57;7.72;;;4.00;;
37955;SDS011;23776;51.592;7.180;2023-02-28T04:07:22;7.97;;;3.65;;
37955;SDS011;23776;51.592;7.180;2023-02-28T04:09:48;7.22;;;3.05;;
37955;SDS011;23776;51.592;7.180;2023-02-28T04:12:14;6.13;;;3.58;;
37955;SDS011;23776;51.592;7.180;2023-02-28T04:14:39;10.30;;;3.20;;
37955;SDS011;23776;51.592;7.180;2023-02-28T04:17:05;5.05;;;2.53;;
37955;SDS011;23776;51.592;7.180;2023-02-28T04:19:30;5.13;;;2.88;;
37955;SDS011;23776;51.592;7.180;2023-02-28T04:21:56;5.97;;;3.22;;
37955;SDS011;23776;51.592;7.180;2023-02-28T04:24:26;8.30;;;2.92;;
37955;SDS011;23776;51.592;7.180;2023-02-28T04:26:53;7.78;;;2.70;;
37955;SDS011;23776;51.592;7.180;2023-02-28T04:29:24;5.32;;;3.03;;
37955;SDS011;23776;51.592;7.180;2023-02-28T04:31:50;6.40;;;3.15;;
37955;SDS011;23776;51.592;7.180;2023-02-28T04:34:18;4.35;;;2.97;;
37955;SDS011;23776;51.592;7.180;2023-02-28T04:36:44;7.80;;;3.30;;
37955;SDS011;23776;51.592;7.180;2023-02-28T04:39:11;7.05;;;2.97;;
37955;SDS011;23776;51.592;7.180;2023-02-28T04:41:37;4.93;;;2.75;;
37955;SDS011;23776;51.592;7.180;2023-02-28T04:44:02;7.43;;;3.08;;
37955;SDS011;23776;51.592;7.180;2023-02-28T04:46:28;14.30;;;3.17;;
37955;SDS011;23776;51.592;7.180;2023-02-28T04:48:55;4.40;;;2.75;;
37955;SDS011;23776;51.592;7.180;2023-02-28T04:51:21;7.00;;;3.40;;
37955;SDS011;23776;51.592;7.180;2023-02-28T04:53:47;7.20;;;2.63;;
37955;SDS011;23776;51.592;7.180;2023-02-28T04:56:14;6.60;;;2.78;;
37955;SDS011;23776;51.592;7.180;2023-02-28T04:58:41;6.13;;;3.20;;
37955;SDS011;23776;51.592;7.180;2023-02-28T05:03:54;7.50;;;2.80;;
37955;SDS011;23776;51.592;7.180;2023-02-28T05:06:22;12.10;;;4.05;;
37955;SDS011;23776;51.592;7.180;2023-02-28T05:08:50;7.65;;;3.35;;
37955;SDS011;23776;51.592;7.180;2023-02-28T05:11:21;5.70;;;3.25;;
37955;SDS011;23776;51.592;7.180;2023-02-28T05:13:59;7.03;;;3.50;;
37955;SDS011;23776;51.592;7.180;2023-02-28T05:16:26;7.45;;;3.15;;
37955;SDS011;23776;51.592;7.180;2023-02-28T05:18:51;6.63;;;3.15;;
37955;SDS011;23776;51.592;7.180;2023-02-28T05:21:23;7.32;;;3.17;;
37955;SDS011;23776;51.592;7.180;2023-02-28T05:23:49;5.47;;;3.80;;
37955;SDS011;23776;51.592;7.180;2023-02-28T05:26:15;9.57;;;3.45;;
37955;SDS011;23776;51.592;7.180;2023-02-28T05:28:40;5.78;;;3.15;;
37955;SDS011;23776;51.592;7.180;2023-02-28T05:31:06;9.32;;;3.97;;
37955;SDS011;23776;51.592;7.180;2023-02-28T05:33:32;8.77;;;3.42;;
37955;SDS011;23776;51.592;7.180;2023-02-28T05:35:58;9.00;;;3.47;;
37955;SDS011;23776;51.592;7.180;2023-02-28T05:38:23;5.07;;;3.58;;
37955;SDS011;23776;51.592;7.180;2023-02-28T05:40:49;7.43;;;3.83;;
37955;SDS011;23776;51.592;7.180;2023-02-28T05:43:15;5.72;;;3.40;;
37955;SDS011;23776;51.592;7.180;2023-02-28T05:45:40;9.38;;;3.45;;
37955;SDS011;23776;51.592;7.180;2023-02-28T05:48:06;10.52;;;4.13;;
37955;SDS011;23776;51.592;7.180;2023-02-28T05:50:32;12.88;;;3.80;;
37955;SDS011;23776;51.592;7.180;2023-02-28T05:52:58;6.72;;;3.60;;
37955;SDS011;23776;51.592;7.180;2023-02-28T05:55:23;8.85;;;3.85;;
37955;SDS011;23776;51.592;7.180;2023-02-28T05:57:49;11.82;;;4.20;;
37955;SDS011;23776;51.592;7.180;2023-02-28T06:00:15;8.02;;;3.88;;
37955;SDS011;23776;51.592;7.180;2023-02-28T06:02:42;7.70;;;4.18;;
37955;SDS011;23776;51.592;7.180;2023-02-28T06:05:16;10.60;;;4.88;;
37955;SDS011;23776;51.592;7.180;2023-02-28T06:07:42;9.50;;;3.80;;
37955;SDS011;23776;51.592;7.180;2023-02-28T06:10:10;6.18;;;3.92;;
37955;SDS011;23776;51.592;7.180;2023-02-28T06:12:36;11.65;;;4.47;;
37955;SDS011;23776;51.592;7.180;2023-02-28T06:15:02;8.90;;;4.45;;
37955;SDS011;23776;51.592;7.180;2023-02-28T06:17:28;14.35;;;4.90;;
37955;SDS011;23776;51.592;7.180;2023-02-28T06:19:54;10.23;;;4.90;;
37955;SDS011;23776;51.592;7.180;2023-02-28T06:22:20;12.18;;;5.30;;
37955;SDS011;23776;51.592;7.180;2023-02-28T06:24:45;14.45;;;5.30;;
37955;SDS011;23776;51.592;7.180;2023-02-28T06:27:11;11.80;;;4.93;;
37955;SDS011;23776;51.592;7.180;2023-02-28T06:29:36;12.57;;;5.85;;
37955;SDS011;23776;51.592;7.180;2023-02-28T06:32:05;12.27;;;5.20;;
37955;SDS011;23776;51.592;7.180;2023-02-28T06:34:30;14.85;;;4.93;;
37955;SDS011;23776;51.592;7.180;2023-02-28T06:36:58;10.68;;;4.38;;
37955;SDS011;23776;51.592;7.180;2023-02-28T06:39:27;12.27;;;5.63;;
37955;SDS011;23776;51.592;7.180;2023-02-28T06:41:53;17.33;;;5.10;;
37955;SDS011;23776;51.592;7.180;2023-02-28T06:44:19;15.38;;;4.85;;
37955;SDS011;23776;51.592;7.180;2023-02-28T06:46:45;14.13;;;5.00;;
37955;SDS011;23776;51.592;7.180;2023-02-28T06:49:11;14.82;;;5.43;;
37955;SDS011;23776;51.592;7.180;2023-02-28T06:51:37;11.60;;;5.28;;
37955;SDS011;23776;51.592;7.180;2023-02-28T06:54:05;11.98;;;5.68;;
37955;SDS011;23776;51.592;7.180;2023-02-28T06:56:33;9.13;;;5.00;;
37955;SDS011;23776;51.592;7.180;2023-02-28T06:59:00;8.32;;;4.15;;
37955;SDS011;23776;51.592;7.180;2023-02-28T07:01:25;9.02;;;4.72;;
37955;SDS011;23776;51.592;7.180;2023-02-28T07:03:53;13.80;;;4.75;;
37955;SDS011;23776;51.592;7.180;2023-02-28T07:06:20;10.30;;;4.47;;
37955;SDS011;23776;51.592;7.180;2023-02-28T07:08:50;8.23;;;4.35;;
37955;SDS011;23776;51.592;7.180;2023-02-28T07:11:17;11.73;;;5.00;;
37955;SDS011;23776;51.592;7.180;2023-02-28T07:13:44;15.38;;;5.63;;
37955;SDS011;23776;51.592;7.180;2023-02-28T07:16:10;10.90;;;4.97;;
37955;SDS011;23776;51.592;7.180;2023-02-28T07:18:37;11.80;;;5.15;;
37955;SDS011;23776;51.592;7.180;2023-02-28T07:21:03;17.00;;;5.45;;
37955;SDS011;23776;51.592;7.180;2023-02-28T07:23:30;15.45;;;5.95;;
37955;SDS011;23776;51.592;7.180;2023-02-28T07:25:56;12.25;;;6.00;;
37955;SDS011;23776;51.592;7.180;2023-02-28T07:28:22;12.38;;;5.05;;
37955;SDS011;23776;51.592;7.180;2023-02-28T07:30:48;7.82;;;5.07;;
37955;SDS011;23776;51.592;7.180;2023-02-28T07:33:13;11.90;;;5.53;;
37955;SDS011;23776;51.592;7.180;2023-02-28T07:35:39;12.98;;;5.97;;
37955;SDS011;23776;51.592;7.180;2023-02-28T07:38:05;10.93;;;5.43;;
37955;SDS011;23776;51.592;7.180;2023-02-28T07:40:32;12.35;;;6.45;;
37955;SDS011;23776;51.592;7.180;2023-02-28T07:42:59;13.05;;;5.65;;
37955;SDS011;23776;51.592;7.180;2023-02-28T07:45:25;17.80;;;8.27;;
37955;SDS011;23776;51.592;7.180;2023-02-28T07:47:51;16.23;;;8.07;;
37955;SDS011;23776;51.592;7.180;2023-02-28T07:50:17;7.57;;;4.75;;
37955;SDS011;23776;51.592;7.180;2023-02-28T07:52:42;9.55;;;4.15;;
37955;SDS011;23776;51.592;7.180;2023-02-28T07:55:08;9.80;;;4.05;;
37955;SDS011;23776;51.592;7.180;2023-02-28T07:57:34;9.02;;;3.95;;
37955;SDS011;23776;51.592;7.180;2023-02-28T08:00:00;7.55;;;3.97;;
37955;SDS011;23776;51.592;7.180;2023-02-28T08:02:28;5.53;;;3.63;;
37955;SDS011;23776;51.592;7.180;2023-02-28T08:04:53;8.77;;;4.07;;
37955;SDS011;23776;51.592;7.180;2023-02-28T08:07:19;7.88;;;4.15;;
37955;SDS011;23776;51.592;7.180;2023-02-28T08:09:44;13.10;;;4.55;;
37955;SDS011;23776;51.592;7.180;2023-02-28T08:12:10;13.32;;;4.25;;
37955;SDS011;23776;51.592;7.180;2023-02-28T08:14:36;8.43;;;3.45;;
37955;SDS011;23776;51.592;7.180;2023-02-28T08:17:02;5.35;;;3.50;;
37955;SDS011;23776;51.592;7.180;2023-02-28T08:19:29;7.82;;;4.00;;
37955;SDS011;23776;51.592;7.180;2023-02-28T08:21:54;4.75;;;3.08;;
37955;SDS011;23776;51.592;7.180;2023-02-28T08:24:21;7.45;;;4.20;;
37955;SDS011;23776;51.592;7.180;2023-02-28T08:26:46;7.45;;;3.65;;
37955;SDS011;23776;51.592;7.180;2023-02-28T08:29:12;12.57;;;3.75;;
37955;SDS011;23776;51.592;7.180;2023-02-28T08:31:38;8.07;;;3.90;;
37955;SDS011;23776;51.592;7.180;2023-02-28T08:34:07;9.38;;;4.45;;
37955;SDS011;23776;51.592;7.180;2023-02-28T08:36:34;10.52;;;4.07;;
37955;SDS011;23776;51.592;7.180;2023-02-28T08:38:59;9.65;;;4.07;;
37955;SDS011;23776;51.592;7.180;2023-02-28T08:41:25;23.13;;;13.02;;
37955;SDS011;23776;51.592;7.180;2023-02-28T08:43:51;9.38;;;5.05;;
37955;SDS011;23776;51.592;7.180;2023-02-28T08:46:18;7.32;;;4.30;;
37955;SDS011;23776;51.592;7.180;2023-02-28T08:48:44;6.18;;;3.28;;
37955;SDS011;23776;51.592;7.180;2023-02-28T08:51:12;6.50;;;3.78;;
37955;SDS011;23776;51.592;7.180;2023-02-28T08:53:41;7.45;;;3.20;;
37955;SDS011;23776;51.592;7.180;2023-02-28T08:56:10;9.70;;;4.30;;
37955;SDS011;23776;51.592;7.180;2023-02-28T08:58:37;6.13;;;3.75;;
37955;SDS011;23776;51.592;7.180;2023-02-28T09:01:07;11.20;;;4.15;;
37955;SDS011;23776;51.592;7.180;2023-02-28T09:03:37;9.93;;;3.58;;
37955;SDS011;23776;51.592;7.180;2023-02-28T09:06:03;9.63;;;3.60;;
37955;SDS011;23776;51.592;7.180;2023-02-28T09:08:30;9.40;;;4.05;;
37955;SDS011;23776;51.592;7.180;2023-02-28T09:10:56;6.40;;;3.13;;
37955;SDS011;23776;51.592;7.180;2023-02-28T09:13:23;6.50;;;2.95;;
37955;SDS011;23776;51.592;7.180;2023-02-28T09:15:50;8.13;;;3.22;;
37955;SDS011;23776;51.592;7.180;2023-02-28T09:18:16;7.78;;;3.53;;
37955;SDS011;23776;51.592;7.180;2023-02-28T09:20:42;8.07;;;3.13;;
37955;SDS011;23776;51.592;7.180;2023-02-28T09:23:09;6.68;;;3.35;;
37955;SDS011;23776;51.592;7.180;2023-02-28T09:25:35;6.55;;;3.20;;
37955;SDS011;23776;51.592;7.180;2023-02-28T09:28:02;5.32;;;3.30;;
37955;SDS011;23776;51.592;7.180;2023-02-28T09:30:28;5.32;;;3.28;;
37955;SDS011;23776;51.592;7.180;2023-02-28T09:32:55;5.53;;;3.38;;
37955;SDS011;23776;51.592;7.180;2023-02-28T09:35:21;4.78;;;2.55;;
37955;SDS011;23776;51.592;7.180;2023-02-28T09:37:48;4.82;;;3.22;;
37955;SDS011;23776;51.592;7.180;2023-02-28T09:40:18;5.65;;;2.80;;
37955;SDS011;23776;51.592;7.180;2023-02-28T09:42:47;5.82;;;3.10;;
37955;SDS011;23776;51.592;7.180;2023-02-28T09:45:19;6.45;;;2.60;;
37955;SDS011;23776;51.592;7.180;2023-02-28T09:47:47;7.57;;;2.80;;
37955;SDS011;23776;51.592;7.180;2023-02-28T09:53:02;6.97;;;3.88;;
37955;SDS011;23776;51.592;7.180;2023-02-28T09:58:32;4.32;;;3.08;;
37955;SDS011;23776;51.592;7.180;2023-02-28T10:01:21;4.97;;;3.17;;
37955;SDS011;23776;51.592;7.180;2023-02-28T10:03:56;5.38;;;2.55;;
37955;SDS011;23776;51.592;7.180;2023-02-28T10:06:51;3.95;;;2.90;;
37955;SDS011;23776;51.592;7.180;2023-02-28T10:09:24;8.80;;;3.28;;
37955;SDS011;23776;51.592;7.180;2023-02-28T10:11:53;5.65;;;2.60;;
37955;SDS011;23776;51.592;7.180;2023-02-28T10:14:26;5.78;;;3.20;;
37955;SDS011;23776;51.592;7.180;2023-02-28T10:16:55;7.32;;;2.97;;
37955;SDS011;23776;51.592;7.180;2023-02-28T10:22:10;4.93;;;3.25;;
37955;SDS011;23776;51.592;7.180;2023-02-28T10:24:43;5.30;;;3.13;;
37955;SDS011;23776;51.592;7.180;2023-02-28T10:27:23;5.75;;;2.45;;
37955;SDS011;23776;51.592;7.180;2023-02-28T10:29:51;7.57;;;2.80;;
37955;SDS011;23776;51.592;7.180;2023-02-28T10:32:20;4.63;;;2.45;;
37955;SDS011;23776;51.592;7.180;2023-02-28T10:37:39;4.07;;;2.50;;
37955;SDS011;23776;51.592;7.180;2023-02-28T10:40:27;5.05;;;2.65;;
37955;SDS011;23776;51.592;7.180;2023-02-28T10:45:23;9.32;;;2.53;;
37955;SDS011;23776;51.592;7.180;2023-02-28T10:55:56;4.15;;;1.98;;
37955;SDS011;23776;51.592;7.180;2023-02-28T11:01:24;3.92;;;2.72;;
37955;SDS011;23776;51.592;7.180;2023-02-28T11:04:01;4.47;;;1.95;;
37955;SDS011;23776;51.592;7.180;2023-02-28T11:06:31;2.83;;;1.60;;
37955;SDS011;23776;51.592;7.180;2023-02-28T11:08:59;8.15;;;1.98;;
37955;SDS011;23776;51.592;7.180;2023-02-28T11:11:28;6.07;;;2.08;;
37955;SDS011;23776;51.592;7.180;2023-02-28T11:13:58;4.72;;;1.48;;
37955;SDS011;23776;51.592;7.180;2023-02-28T11:16:33;8.45;;;1.90;;
37955;SDS011;23776;51.592;7.180;2023-02-28T11:19:00;4.72;;;1.65;;
37955;SDS011;23776;51.592;7.180;2023-02-28T11:21:32;5.03;;;1.63;;
37955;SDS011;23776;51.592;7.180;2023-02-28T11:26:51;2.15;;;1.40;;
37955;SDS011;23776;51.592;7.180;2023-02-28T11:32:04;3.50;;;2.42;;
37955;SDS011;23776;51.592;7.180;2023-02-28T11:34:36;5.20;;;2.60;;
37955;SDS011;23776;51.592;7.180;2023-02-28T11:37:03;3.75;;;1.95;;
37955;SDS011;23776;51.592;7.180;2023-02-28T11:39:31;3.50;;;2.35;;
37955;SDS011;23776;51.592;7.180;2023-02-28T11:42:11;4.60;;;2.40;;
37955;SDS011;23776;51.592;7.180;2023-02-28T11:44:43;2.63;;;1.73;;
37955;SDS011;23776;51.592;7.180;2023-02-28T11:47:24;5.28;;;2.00;;
37955;SDS011;23776;51.592;7.180;2023-02-28T12:06:50;3.50;;;1.98;;
37955;SDS011;23776;51.592;7.180;2023-02-28T12:09:31;4.70;;;2.13;;
37955;SDS011;23776;51.592;7.180;2023-02-28T12:15:23;11.40;;;4.80;;
37955;SDS011;23776;51.592;7.180;2023-02-28T12:18:15;5.10;;;2.08;;
37955;SDS011;23776;51.592;7.180;2023-02-28T12:23:26;5.45;;;2.28;;
37955;SDS011;23776;51.592;7.180;2023-02-28T12:26:53;4.07;;;2.20;;
37955;SDS011;23776;51.592;7.180;2023-02-28T12:37:33;6.57;;;4.20;;
37955;SDS011;23776;51.592;7.180;2023-02-28T12:40:11;5.45;;;2.60;;
37955;SDS011;23776;51.592;7.180;2023-02-28T12:42:43;5.60;;;2.40;;
37955;SDS011;23776;51.592;7.180;2023-02-28T12:45:17;5.00;;;2.53;;
37955;SDS011;23776;51.592;7.180;2023-02-28T12:47:46;3.17;;;1.90;;
37955;SDS011;23776;51.592;7.180;2023-02-28T12:50:18;4.65;;;2.20;;
37955;SDS011;23776;51.592;7.180;2023-02-28T12:52:58;6.72;;;2.40;;
37955;SDS011;23776;51.592;7.180;2023-02-28T13:06:28;3.60;;;1.83;;
37955;SDS011;23776;51.592;7.180;2023-02-28T13:09:31;4.22;;;1.88;;
37955;SDS011;23776;51.592;7.180;2023-02-28T13:11:51;4.43;;;2.03;;
37955;SDS011;23776;51.592;7.180;2023-02-28T13:27:48;7.05;;;2.40;;
37955;SDS011;23776;51.592;7.180;2023-02-28T13:38:51;16.00;;;9.02;;
37955;SDS011;23776;51.592;7.180;2023-02-28T13:44:36;4.90;;;2.88;;
37955;SDS011;23776;51.592;7.180;2023-02-28T13:51:52;6.00;;;2.75;;
37955;SDS011;23776;51.592;7.180;2023-02-28T14:08:53;6.07;;;2.35;;
37955;SDS011;23776;51.592;7.180;2023-02-28T14:11:32;5.25;;;2.72;;
37955;SDS011;23776;51.592;7.180;2023-02-28T14:13:59;3.28;;;2.40;;
37955;SDS011;23776;51.592;7.180;2023-02-28T14:16:27;4.93;;;2.70;;
37955;SDS011;23776;51.592;7.180;2023-02-28T14:21:50;3.95;;;2.70;;
37955;SDS011;23776;51.592;7.180;2023-02-28T14:27:37;5.97;;;2.45;;
37955;SDS011;23776;51.592;7.180;2023-02-28T14:33:13;6.55;;;2.50;;
37955;SDS011;23776;51.592;7.180;2023-02-28T14:38:30;6.55;;;2.85;;
37955;SDS011;23776;51.592;7.180;2023-02-28T14:41:00;5.93;;;3.42;;
37955;SDS011;23776;51.592;7.180;2023-02-28T14:43:31;7.97;;;3.20;;
37955;SDS011;23776;51.592;7.180;2023-02-28T14:45:58;5.88;;;2.40;;
37955;SDS011;23776;51.592;7.180;2023-02-28T14:48:29;10.13;;;4.45;;
37955;SDS011;23776;51.592;7.180;2023-02-28T14:50:56;4.18;;;2.70;;
37955;SDS011;23776;51.592;7.180;2023-02-28T14:53:25;4.13;;;2.45;;
37955;SDS011;23776;51.592;7.180;2023-02-28T14:55:54;4.53;;;2.63;;
37955;SDS011;23776;51.592;7.180;2023-02-28T14:58:30;6.85;;;4.53;;
37955;SDS011;23776;51.592;7.180;2023-02-28T15:00:58;3.97;;;2.28;;
37955;SDS011;23776;51.592;7.180;2023-02-28T15:03:34;4.18;;;2.70;;
37955;SDS011;23776;51.592;7.180;2023-02-28T15:06:02;6.05;;;3.00;;
37955;SDS011;23776;51.592;7.180;2023-02-28T15:08:37;7.90;;;2.78;;
37955;SDS011;23776;51.592;7.180;2023-02-28T15:13:45;2.95;;;2.28;;
37955;SDS011;23776;51.592;7.180;2023-02-28T15:16:17;4.60;;;2.65;;
37955;SDS011;23776;51.592;7.180;2023-02-28T15:18:48;5.45;;;3.00;;
37955;SDS011;23776;51.592;7.180;2023-02-28T15:21:38;5.35;;;2.67;;
37955;SDS011;23776;51.592;7.180;2023-02-28T15:24:17;5.43;;;2.85;;
37955;SDS011;23776;51.592;7.180;2023-02-28T15:26:53;4.90;;;2.95;;
37955;SDS011;23776;51.592;7.180;2023-02-28T15:29:21;7.13;;;3.38;;
37955;SDS011;23776;51.592;7.180;2023-02-28T15:31:50;5.82;;;3.38;;
37955;SDS011;23776;51.592;7.180;2023-02-28T15:34:28;6.80;;;3.17;;
37955;SDS011;23776;51.592;7.180;2023-02-28T15:39:26;4.03;;;3.25;;
37955;SDS011;23776;51.592;7.180;2023-02-28T15:42:38;5.55;;;3.28;;
37955;SDS011;23776;51.592;7.180;2023-02-28T15:44:43;6.22;;;2.97;;
37955;SDS011;23776;51.592;7.180;2023-02-28T15:47:19;6.63;;;3.17;;
37955;SDS011;23776;51.592;7.180;2023-02-28T15:49:49;4.95;;;3.25;;
37955;SDS011;23776;51.592;7.180;2023-02-28T15:52:16;5.68;;;2.90;;
37955;SDS011;23776;51.592;7.180;2023-02-28T15:54:47;4.70;;;3.28;;
37955;SDS011;23776;51.592;7.180;2023-02-28T15:57:15;6.57;;;3.40;;
37955;SDS011;23776;51.592;7.180;2023-02-28T15:59:59;7.63;;;3.08;;
37955;SDS011;23776;51.592;7.180;2023-02-28T16:02:30;6.40;;;3.25;;
37955;SDS011;23776;51.592;7.180;2023-02-28T16:05:02;10.30;;;3.65;;
37955;SDS011;23776;51.592;7.180;2023-02-28T16:07:45;7.22;;;3.33;;
37955;SDS011;23776;51.592;7.180;2023-02-28T16:10:13;7.60;;;3.75;;
37955;SDS011;23776;51.592;7.180;2023-02-28T16:12:41;9.85;;;3.67;;
37955;SDS011;23776;51.592;7.180;2023-02-28T16:15:08;8.57;;;3.30;;
37955;SDS011;23776;51.592;7.180;2023-02-28T16:17:55;6.88;;;3.30;;
37955;SDS011;23776;51.592;7.180;2023-02-28T16:20:22;7.65;;;3.15;;
37955;SDS011;23776;51.592;7.180;2023-02-28T16:22:52;6.53;;;3.63;;
37955;SDS011;23776;51.592;7.180;2023-02-28T16:25:19;6.70;;;3.58;;
37955;SDS011;23776;51.592;7.180;2023-02-28T16:27:59;11.32;;;5.57;;
37955;SDS011;23776;51.592;7.180;2023-02-28T16:30:26;8.05;;;5.68;;
37955;SDS011;23776;51.592;7.180;2023-02-28T16:32:54;7.88;;;3.92;;
37955;SDS011;23776;51.592;7.180;2023-02-28T16:35:20;7.32;;;4.13;;
37955;SDS011;23776;51.592;7.180;2023-02-28T16:37:46;5.68;;;3.40;;
37955;SDS011;23776;51.592;7.180;2023-02-28T16:40:13;6.03;;;3.60;;
37955;SDS011;23776;51.592;7.180;2023-02-28T16:42:41;9.05;;;3.58;;
37955;SDS011;23776;51.592;7.180;2023-02-28T16:45:11;8.13;;;3.92;;
37955;SDS011;23776;51.592;7.180;2023-02-28T16:47:43;8.13;;;3.47;;
37955;SDS011;23776;51.592;7.180;2023-02-28T16:50:19;6.72;;;3.25;;
37955;SDS011;23776;51.592;7.180;2023-02-28T16:52:51;7.95;;;2.90;;
37955;SDS011;23776;51.592;7.180;2023-02-28T16:55:17;7.82;;;3.67;;
37955;SDS011;23776;51.592;7.180;2023-02-28T16:57:50;6.38;;;4.10;;
37955;SDS011;23776;51.592;7.180;2023-02-28T17:00:18;7.07;;;3.92;;
37955;SDS011;23776;51.592;7.180;2023-02-28T17:02:44;7.53;;;3.58;;
37955;SDS011;23776;51.592;7.180;2023-02-28T17:05:12;8.88;;;3.80;;
37955;SDS011;23776;51.592;7.180;2023-02-28T17:07:39;6.90;;;3.45;;
37955;SDS011;23776;51.592;7.180;2023-02-28T17:10:11;7.18;;;3.25;;
37955;SDS011;23776;51.592;7.180;2023-02-28T17:12:39;10.02;;;3.40;;
37955;SDS011;23776;51.592;7.180;2023-02-28T17:15:05;7.50;;;3.72;;
37955;SDS011;23776;51.592;7.180;2023-02-28T17:17:32;9.18;;;3.80;;
37955;SDS011;23776;51.592;7.180;2023-02-28T17:19:57;7.32;;;3.55;;
37955;SDS011;23776;51.592;7.180;2023-02-28T17:22:23;8.15;;;4.00;;
37955;SDS011;23776;51.592;7.180;2023-02-28T17:24:50;7.90;;;3.65;;
37955;SDS011;23776;51.592;7.180;2023-02-28T17:27:16;8.30;;;3.83;;
37955;SDS011;23776;51.592;7.180;2023-02-28T17:29:42;9.07;;;3.88;;
37955;SDS011;23776;51.592;7.180;2023-02-28T17:32:07;6.53;;;3.47;;
37955;SDS011;23776;51.592;7.180;2023-02-28T17:34:33;8.02;;;4.25;;
37955;SDS011;23776;51.592;7.180;2023-02-28T17:36:58;10.63;;;4.15;;
37955;SDS011;23776;51.592;7.180;2023-02-28T17:39:24;9.52;;;3.90;;
37955;SDS011;23776;51.592;7.180;2023-02-28T17:41:53;11.43;;;4.50;;
37955;SDS011;23776;51.592;7.180;2023-02-28T17:44:20;7.05;;;3.97;;
37955;SDS011;23776;51.592;7.180;2023-02-28T17:46:46;9.35;;;4.88;;
37955;SDS011;23776;51.592;7.180;2023-02-28T17:49:14;7.50;;;3.83;;
37955;SDS011;23776;51.592;7.180;2023-02-28T17:51:40;9.07;;;4.28;;